Time;durP1;ratioP1;P1;durP2;ratioP2;P2;SDS_P1;SDS_P2;PMS_P1;PMS_P2;Temp;Humidity;BMP_temperature;BMP_pressure;BME280_temperature;BME280_humidity;BME280_pressure;Samples;Min_cycle;Max_cycle;Signal;HPM_P1;HPM_P2
2021/09/10 00:00:42;;;;;;;11.77;7.95;;;;;;;13.30;100.00;93815.22;5113365;28;20254;-78
2021/09/10 00:03:08;;;;;;;12.50;8.27;;;;;;;13.15;100.00;93814.75;5112591;28;20201;-78
2021/09/10 00:05:35;;;;;;;17.00;8.60;;;;;;;13.12;100.00;93810.75;5113009;28;20200;-78
2021/09/10 00:08:02;;;;;;;12.85;8.25;;;;;;;13.03;100.00;93813.88;5112502;28;20655;-78
2021/09/10 00:10:31;;;;;;;14.75;8.20;;;;;;;13.04;100.00;93812.81;5113365;28;20193;-78
2021/09/10 00:12:57;;;;;;;13.60;8.65;;;;;;;13.01;100.00;93811.47;5112844;28;20233;-79
2021/09/10 00:15:24;;;;;;;14.38;8.80;;;;;;;12.99;100.00;93813.50;5113847;28;20201;-79
2021/09/10 00:17:52;;;;;;;14.90;9.20;;;;;;;12.92;100.00;93810.94;5113154;28;20225;-78
2021/09/10 00:20:18;;;;;;;12.88;8.88;;;;;;;12.92;100.00;93816.16;5111458;28;20201;-78
2021/09/10 00:22:45;;;;;;;11.98;8.57;;;;;;;12.93;100.00;93812.50;5113050;28;20205;-78
2021/09/10 00:25:12;;;;;;;16.57;8.90;;;;;;;12.96;100.00;93806.84;5113070;28;20233;-79
2021/09/10 00:27:39;;;;;;;13.07;8.97;;;;;;;12.96;100.00;93809.47;5113603;28;20537;-79
2021/09/10 00:30:08;;;;;;;15.77;9.00;;;;;;;12.93;100.00;93812.50;5113484;28;20208;-78
2021/09/10 00:32:34;;;;;;;16.40;9.53;;;;;;;12.95;100.00;93809.69;5113085;28;20216;-79
2021/09/10 00:35:03;;;;;;;15.07;9.20;;;;;;;13.06;100.00;93810.81;5112321;28;20716;-78
2021/09/10 00:37:30;;;;;;;15.40;8.70;;;;;;;13.13;100.00;93808.94;5113039;28;20435;-78
2021/09/10 00:39:56;;;;;;;14.97;9.70;;;;;;;13.20;100.00;93812.28;5113297;28;20201;-78
2021/09/10 00:42:23;;;;;;;16.25;9.00;;;;;;;13.26;100.00;93808.03;5111321;28;20341;-79
2021/09/10 00:44:49;;;;;;;13.95;8.98;;;;;;;13.29;100.00;93803.16;5112171;28;20208;-79
2021/09/10 00:47:16;;;;;;;12.00;8.43;;;;;;;13.27;100.00;93802.56;5113235;28;20201;-79
2021/09/10 00:49:43;;;;;;;15.15;8.93;;;;;;;13.25;100.00;93803.78;5112796;28;20201;-79
2021/09/10 00:52:11;;;;;;;12.95;8.70;;;;;;;13.27;100.00;93802.56;5112540;28;20205;-79
2021/09/10 00:54:37;;;;;;;16.02;8.55;;;;;;;13.43;100.00;93805.66;5112523;28;20208;-78
2021/09/10 00:57:04;;;;;;;12.10;8.52;;;;;;;13.46;100.00;93806.03;5112857;28;20233;-79
2021/09/10 00:59:31;;;;;;;15.52;9.10;;;;;;;13.46;100.00;93797.38;5113213;28;20251;-79
2021/09/10 01:01:57;;;;;;;14.73;8.50;;;;;;;13.48;100.00;93798.75;5111929;28;20198;-79
2021/09/10 01:04:25;;;;;;;15.65;8.35;;;;;;;13.45;100.00;93801.00;5111488;28;20295;-79
2021/09/10 01:06:53;;;;;;;15.85;8.63;;;;;;;13.40;100.00;93792.97;5112786;28;20292;-78
2021/09/10 01:09:22;;;;;;;13.73;8.20;;;;;;;13.39;100.00;93801.84;5112281;28;20209;-78
2021/09/10 01:11:50;;;;;;;15.65;8.88;;;;;;;13.33;100.00;93795.69;5112650;28;20202;-78
2021/09/10 01:14:18;;;;;;;17.35;8.85;;;;;;;13.33;100.00;93791.22;5113020;28;20197;-78
2021/09/10 01:16:45;;;;;;;15.98;8.50;;;;;;;13.30;100.00;93793.44;5112457;28;20225;-79
2021/09/10 01:19:22;;;;;;;15.82;8.57;;;;;;;13.25;100.00;93794.09;5112196;28;20198;-78
2021/09/10 01:21:51;;;;;;;14.68;8.90;;;;;;;13.26;100.00;93792.28;5112273;28;20201;-79
2021/09/10 01:24:27;;;;;;;16.20;9.03;;;;;;;13.16;100.00;93787.53;5112642;28;20670;-79
2021/09/10 01:26:55;;;;;;;12.43;8.50;;;;;;;13.10;100.00;93783.94;5115729;28;20305;-79
2021/09/10 01:29:22;;;;;;;14.60;8.47;;;;;;;13.04;100.00;93782.19;5116159;28;20197;-79
2021/09/10 01:31:48;;;;;;;13.67;8.73;;;;;;;12.96;100.00;93785.88;5116178;28;20652;-78
2021/09/10 01:34:15;;;;;;;22.67;9.67;;;;;;;12.90;100.00;93785.94;5116141;28;20202;-78
2021/09/10 01:36:41;;;;;;;18.40;9.73;;;;;;;12.83;100.00;93780.75;5116307;28;20313;-78
2021/09/10 01:39:08;;;;;;;13.63;9.13;;;;;;;12.82;100.00;93792.25;5116252;28;20197;-78
2021/09/10 01:41:34;;;;;;;16.17;9.10;;;;;;;12.69;100.00;93798.41;5116150;28;20208;-78
2021/09/10 01:44:02;;;;;;;15.47;9.53;;;;;;;12.70;100.00;93791.34;5116167;27;20648;-77
2021/09/10 01:46:28;;;;;;;14.20;8.77;;;;;;;12.68;100.00;93804.66;5115022;28;20198;-78
2021/09/10 01:48:55;;;;;;;16.43;9.57;;;;;;;12.62;100.00;93794.22;5115218;28;20197;-78
2021/09/10 01:51:29;;;;;;;14.07;9.73;;;;;;;12.66;100.00;93795.41;5116526;28;20535;-78
2021/09/10 01:53:55;;;;;;;18.93;10.17;;;;;;;12.74;100.00;93797.78;5115898;28;20219;-78
2021/09/10 01:56:22;;;;;;;19.92;11.05;;;;;;;12.75;100.00;93796.75;5114809;28;20432;-80
2021/09/10 01:58:48;;;;;;;16.83;10.05;;;;;;;12.74;100.00;93803.00;5115346;28;20229;-79
2021/09/10 02:01:21;;;;;;;14.73;9.40;;;;;;;12.77;100.00;93797.31;5115748;28;20655;-79
2021/09/10 02:03:47;;;;;;;14.82;9.82;;;;;;;12.73;100.00;93804.81;5115986;28;20606;-79
2021/09/10 02:06:14;;;;;;;13.40;9.03;;;;;;;12.69;100.00;93800.19;5115377;27;20208;-79
2021/09/10 02:08:40;;;;;;;13.57;9.10;;;;;;;12.66;100.00;93804.06;5115738;28;20216;-78
2021/09/10 02:11:06;;;;;;;14.93;9.45;;;;;;;12.64;100.00;93805.28;5114800;28;20197;-78
2021/09/10 02:13:33;;;;;;;15.80;9.93;;;;;;;12.71;100.00;93808.66;5115057;28;20663;-79
2021/09/10 02:15:59;;;;;;;14.23;9.77;;;;;;;12.78;100.00;93798.94;5115650;28;20221;-80
2021/09/10 02:18:27;;;;;;;15.43;9.30;;;;;;;12.82;100.00;93800.09;5114811;28;20221;-79
2021/09/10 02:20:54;;;;;;;14.83;9.40;;;;;;;12.84;100.00;93798.09;5114848;28;20197;-81
2021/09/10 02:23:20;;;;;;;12.77;9.03;;;;;;;12.81;100.00;93801.13;5115178;28;20197;-78
2021/09/10 02:25:47;;;;;;;14.87;9.70;;;;;;;12.80;100.00;93804.75;5115377;28;20282;-79
2021/09/10 02:28:13;;;;;;;14.80;9.35;;;;;;;12.81;100.00;93795.09;5114682;28;20223;-79
2021/09/10 02:30:40;;;;;;;17.55;9.80;;;;;;;12.81;100.00;93795.09;5115141;28;20651;-78
2021/09/10 02:33:06;;;;;;;14.27;8.80;;;;;;;12.87;100.00;93796.84;5114376;28;20201;-79
2021/09/10 02:35:34;;;;;;;14.17;8.83;;;;;;;12.84;100.00;93794.66;5114584;28;20198;-79
2021/09/10 02:38:00;;;;;;;11.77;7.97;;;;;;;12.85;100.00;93793.66;5114461;28;20225;-81
2021/09/10 02:40:29;;;;;;;14.33;8.63;;;;;;;12.82;100.00;93794.06;5114072;28;20224;-81
2021/09/10 02:42:55;;;;;;;15.93;9.43;;;;;;;12.79;100.00;93790.06;5114955;28;20193;-80
2021/09/10 02:45:22;;;;;;;18.07;9.87;;;;;;;12.80;100.00;93796.09;5115209;28;20197;-80
2021/09/10 02:47:48;;;;;;;13.20;9.03;;;;;;;12.84;100.00;93798.09;5113804;28;20208;-81
2021/09/10 02:50:15;;;;;;;14.30;8.23;;;;;;;12.81;100.00;93798.50;5114565;28;20299;-80
2021/09/10 02:52:43;;;;;;;12.47;8.70;;;;;;;12.88;100.00;93799.25;5114151;28;20204;-82
2021/09/10 02:55:11;;;;;;;14.27;8.40;;;;;;;12.86;100.00;93797.88;5114533;28;20205;-80
2021/09/10 02:57:37;;;;;;;15.27;9.03;;;;;;;13.04;100.00;93786.63;5115022;28;20221;-80
2021/09/10 03:00:05;;;;;;;16.97;8.47;;;;;;;13.03;100.00;93785.81;5114374;28;20202;-81
2021/09/10 03:02:32;;;;;;;15.63;8.77;;;;;;;13.01;100.00;93782.63;5114385;28;20201;-80
2021/09/10 03:04:58;;;;;;;17.83;8.50;;;;;;;13.02;100.00;93783.41;5113436;28;20198;-80
2021/09/10 03:07:25;;;;;;;14.93;8.75;;;;;;;13.04;100.00;93786.63;5113115;28;20202;-80
2021/09/10 03:09:52;;;;;;;13.40;8.10;;;;;;;13.05;100.00;93781.16;5114739;28;20671;-80
2021/09/10 03:12:19;;;;;;;13.33;8.23;;;;;;;13.04;100.00;93776.97;5114516;28;20728;-80
2021/09/10 03:14:45;;;;;;;13.77;8.80;;;;;;;13.03;100.00;93775.34;5113580;28;20202;-81
2021/09/10 03:17:12;;;;;;;16.25;8.55;;;;;;;13.04;100.00;93781.38;5113447;28;20213;-80
2021/09/10 03:19:39;;;;;;;17.13;8.63;;;;;;;13.04;100.00;93776.13;5113504;28;20205;-80
2021/09/10 03:22:06;;;;;;;13.30;7.80;;;;;;;13.04;100.00;93770.91;5113920;28;20281;-80
2021/09/10 03:24:33;;;;;;;15.52;9.35;;;;;;;13.06;100.00;93777.53;5113866;28;20905;-80
2021/09/10 03:27:00;;;;;;;13.48;8.20;;;;;;;13.05;100.00;93772.50;5114237;28;20244;-80
2021/09/10 03:29:27;;;;;;;16.52;8.85;;;;;;;13.09;100.00;93768.44;5114432;28;20227;-80
2021/09/10 03:31:53;;;;;;;16.35;8.60;;;;;;;13.10;100.00;93770.03;5113687;28;20200;-80
2021/09/10 03:34:21;;;;;;;12.82;8.20;;;;;;;13.12;100.00;93768.81;5113705;28;20197;-78
2021/09/10 03:36:47;;;;;;;13.30;8.77;;;;;;;13.17;100.00;93762.91;5114162;28;20197;-80
2021/09/10 03:39:14;;;;;;;16.87;9.27;;;;;;;13.21;100.00;93766.72;5113496;28;20353;-80
2021/09/10 03:41:40;;;;;;;15.98;8.73;;;;;;;13.29;100.00;93774.31;5113740;28;20198;-80
2021/09/10 03:44:08;;;;;;;15.33;8.23;;;;;;;13.31;100.00;93760.97;5114283;28;20197;-80
2021/09/10 03:46:34;;;;;;;17.97;8.77;;;;;;;13.32;100.00;93755.56;5112657;28;20204;-80
2021/09/10 03:49:01;;;;;;;16.38;8.60;;;;;;;13.39;100.00;93759.91;5112315;28;20205;-80
2021/09/10 03:51:27;;;;;;;16.02;8.88;;;;;;;13.47;100.00;93754.38;5113261;28;20198;-80
2021/09/10 03:53:54;;;;;;;16.98;8.63;;;;;;;13.47;100.00;93755.19;5113300;28;20223;-80
2021/09/10 03:56:21;;;;;;;10.00;7.22;;;;;;;13.60;100.00;93753.44;5113197;28;20224;-80
2021/09/10 03:58:47;;;;;;;12.15;7.78;;;;;;;13.73;100.00;93757.72;5113516;28;20225;-80
2021/09/10 04:01:15;;;;;;;11.63;7.15;;;;;;;13.86;100.00;93752.31;5112365;28;20201;-80
2021/09/10 04:03:41;;;;;;;14.98;7.88;;;;;;;13.86;100.00;93750.47;5111660;28;20209;-80
2021/09/10 04:06:09;;;;;;;12.43;7.30;;;;;;;13.85;100.00;93755.94;5113689;28;20209;-81
2021/09/10 04:08:36;;;;;;;10.57;7.10;;;;;;;13.90;100.00;93760.53;5113265;28;20651;-80
2021/09/10 04:11:02;;;;;;;11.60;8.10;;;;;;;13.92;100.00;93751.41;5112066;28;20458;-80
2021/09/10 04:13:29;;;;;;;11.80;6.90;;;;;;;14.02;100.00;93751.72;5112083;28;20204;-81
2021/09/10 04:15:55;;;;;;;11.18;6.40;;;;;;;14.10;100.00;93742.69;5113466;27;20205;-80
2021/09/10 04:18:23;;;;;;;12.73;6.82;;;;;;;14.18;100.00;93747.66;5112875;28;20221;-80
2021/09/10 04:20:49;;;;;;;11.18;7.05;;;;;;;14.09;100.00;93745.56;5113470;28;20567;-80
2021/09/10 04:23:16;;;;;;;10.82;6.88;;;;;;;14.04;100.00;93749.66;5113210;28;20197;-81
2021/09/10 04:25:42;;;;;;;10.15;6.82;;;;;;;14.07;100.00;93751.84;5113118;28;20225;-80
2021/09/10 04:28:10;;;;;;;9.15;7.05;;;;;;;14.28;100.00;93760.25;5113330;28;20227;-80
2021/09/10 04:30:36;;;;;;;11.95;6.78;;;;;;;14.29;100.00;93753.97;5112970;28;20198;-80
2021/09/10 04:33:03;;;;;;;21.63;7.07;;;;;;;14.28;100.00;93760.25;5112791;28;20322;-81
2021/09/10 04:35:31;;;;;;;13.02;6.38;;;;;;;14.37;100.00;93764.16;5112850;28;20705;-81
2021/09/10 04:37:57;;;;;;;11.15;6.53;;;;;;;14.42;100.00;93759.03;5113167;28;20271;-80
2021/09/10 04:40:24;;;;;;;9.77;6.18;;;;;;;14.43;100.00;93763.25;5112391;28;20587;-79
2021/09/10 04:42:50;;;;;;;9.43;6.30;;;;;;;14.54;100.00;93763.53;5112760;28;20197;-80
2021/09/10 04:45:17;;;;;;;10.55;6.55;;;;;;;14.54;100.00;93763.53;5113234;28;20212;-80
2021/09/10 04:47:43;;;;;;;10.20;6.72;;;;;;;14.50;100.00;93762.34;5112791;28;20209;-80
2021/09/10 04:50:10;;;;;;;14.57;7.35;;;;;;;14.52;100.00;93765.56;5111709;28;20204;-80
2021/09/10 04:52:38;;;;;;;11.88;6.88;;;;;;;14.47;100.00;93758.38;5112053;28;20201;-80
2021/09/10 04:55:06;;;;;;;10.30;6.78;;;;;;;14.43;100.00;93763.25;5112526;28;20201;-80
2021/09/10 04:57:33;;;;;;;8.73;6.45;;;;;;;14.42;100.00;93761.66;5112251;28;20212;-80
2021/09/10 04:59:59;;;;;;;11.75;6.47;;;;;;;14.48;100.00;93759.94;5115361;28;20204;-80
2021/09/10 05:02:26;;;;;;;9.48;6.35;;;;;;;14.55;100.00;93765.09;5117217;28;20613;-80
2021/09/10 05:04:53;;;;;;;9.35;6.60;;;;;;;14.60;100.00;93762.63;5116524;28;20201;-80
2021/09/10 05:07:19;;;;;;;12.88;6.78;;;;;;;14.71;100.00;93763.69;5117071;28;20204;-80
2021/09/10 05:09:47;;;;;;;11.27;6.95;;;;;;;14.79;100.00;93772.03;5116687;28;20705;-80
2021/09/10 05:12:15;;;;;;;12.05;6.18;;;;;;;14.78;100.00;93772.28;5116337;28;20201;-80
2021/09/10 05:14:41;;;;;;;10.02;6.30;;;;;;;14.73;100.00;93767.69;5117044;28;20655;-80
2021/09/10 05:17:10;;;;;;;9.13;6.38;;;;;;;14.73;100.00;93761.63;5116996;28;20204;-80
2021/09/10 05:19:36;;;;;;;10.52;6.72;;;;;;;14.70;100.00;93762.88;5115680;28;20274;-80
2021/09/10 05:22:03;;;;;;;11.45;6.50;;;;;;;14.62;100.00;93771.09;5115713;28;20240;-80
2021/09/10 05:24:30;;;;;;;10.48;6.65;;;;;;;14.60;100.00;93775.78;5116218;28;20200;-80
2021/09/10 05:26:57;;;;;;;10.43;6.88;;;;;;;14.63;100.00;93780.59;5116192;28;20614;-80
2021/09/10 05:29:24;;;;;;;10.30;6.00;;;;;;;14.78;100.00;93775.69;5116265;28;20232;-80
2021/09/10 05:31:50;;;;;;;11.75;6.68;;;;;;;14.91;100.00;93779.16;5115819;28;20201;-81
2021/09/10 05:34:17;;;;;;;13.95;6.28;;;;;;;14.99;100.00;93784.09;5116639;28;20197;-80
2021/09/10 05:36:43;;;;;;;10.85;6.68;;;;;;;15.07;100.00;93783.75;5113581;28;20201;-80
2021/09/10 05:39:10;;;;;;;8.13;5.80;;;;;;;15.22;100.00;93782.47;5115206;28;20225;-80
2021/09/10 05:41:36;;;;;;;9.85;5.72;;;;;;;15.37;100.00;93788.09;5114947;28;20202;-80
2021/09/10 05:44:04;;;;;;;9.32;5.70;;;;;;;15.54;100.00;93786.34;5116189;28;20210;-80
2021/09/10 05:46:31;;;;;;;9.57;6.25;;;;;;;15.70;100.00;93782.22;5115144;27;20208;-80
2021/09/10 05:48:57;;;;;;;16.23;6.47;;;;;;;15.78;100.00;93788.97;5115008;27;20562;-80
2021/09/10 05:51:24;;;;;;;8.95;5.82;;;;;;;15.86;100.00;93780.72;5115228;28;20247;-79
2021/09/10 05:53:50;;;;;;;9.23;5.65;;;;;;;15.98;100.00;93780.69;5115207;28;20206;-80
2021/09/10 05:56:16;;;;;;;11.20;6.07;;;;;;;16.04;100.00;93785.03;5116140;28;20230;-80
2021/09/10 05:58:43;;;;;;;8.80;5.53;;;;;;;16.04;100.00;93777.13;5116467;28;20232;-80
2021/09/10 06:01:11;;;;;;;8.70;5.20;;;;;;;16.11;100.00;93787.53;5115151;28;20200;-80
2021/09/10 06:03:37;;;;;;;9.13;5.72;;;;;;;16.19;100.00;93783.72;5115389;28;20204;-80
2021/09/10 06:06:04;;;;;;;11.10;5.90;;;;;;;16.37;100.00;93786.19;5115089;27;20690;-80
2021/09/10 06:08:30;;;;;;;12.05;6.03;;;;;;;16.60;100.00;93790.53;5115828;28;20209;-80
2021/09/10 06:10:57;;;;;;;9.88;5.63;;;;;;;16.69;100.00;93795.44;5114655;27;20258;-80
2021/09/10 06:13:23;;;;;;;9.77;5.53;;;;;;;16.69;100.00;93792.78;5115390;28;20220;-80
2021/09/10 06:15:49;;;;;;;9.65;5.57;;;;;;;16.79;100.00;93795.59;5115640;28;20193;-80
2021/09/10 06:18:17;;;;;;;8.07;5.35;;;;;;;16.77;100.00;93800.28;5114718;28;20224;-80
2021/09/10 06:20:44;;;;;;;9.05;5.80;;;;;;;16.99;100.00;93800.44;5115102;28;20205;-80
2021/09/10 06:23:10;;;;;;;11.57;5.55;;;;;;;17.05;100.00;93796.81;5115973;28;20209;-80
2021/09/10 06:25:37;;;;;;;8.52;5.75;;;;;;;17.17;100.00;93794.91;5114566;28;20229;-80
2021/09/10 06:28:03;;;;;;;8.63;5.78;;;;;;;17.12;100.00;93802.75;5114559;28;20202;-80
2021/09/10 06:30:30;;;;;;;9.18;4.90;;;;;;;17.35;100.00;93801.78;5115237;28;20193;-78
2021/09/10 06:32:56;;;;;;;8.52;5.45;;;;;;;17.35;100.00;93801.78;5114990;28;20200;-78
2021/09/10 06:35:24;;;;;;;7.47;5.25;;;;;;;17.54;100.00;93806.78;5115098;28;20686;-78
2021/09/10 06:37:50;;;;;;;8.05;5.38;;;;;;;17.73;100.00;93809.94;5114651;28;20200;-78
2021/09/10 06:40:17;;;;;;;14.90;6.20;;;;;;;17.97;100.00;93804.47;5114860;28;20232;-78
2021/09/10 06:42:43;;;;;;;10.18;4.85;;;;;;;17.87;100.00;93803.31;5115440;28;20202;-78
2021/09/10 06:45:11;;;;;;;8.52;5.35;;;;;;;18.07;100.00;93810.69;5115377;28;20625;-78
2021/09/10 06:47:38;;;;;;;7.65;4.70;;;;;;;18.32;98.60;93801.47;5114107;28;20556;-78
2021/09/10 06:50:09;;;;;;;13.93;5.25;;;;;;;18.22;100.00;93798.66;5114362;28;20197;-78
2021/09/10 06:52:37;;;;;;;8.63;4.95;;;;;;;18.26;100.00;93795.28;5114395;28;20197;-79
2021/09/10 06:55:04;;;;;;;8.68;4.95;;;;;;;18.27;94.38;93798.75;5114412;28;20197;-78
2021/09/10 06:57:31;;;;;;;6.75;4.88;;;;;;;18.36;94.55;93807.81;5114663;28;20201;-78
2021/09/10 06:59:57;;;;;;;8.23;4.60;;;;;;;18.65;94.59;93810.22;5114371;28;20320;-78
2021/09/10 07:02:24;;;;;;;9.23;4.63;;;;;;;18.86;92.84;93804.13;5113397;28;20205;-78
2021/09/10 07:04:50;;;;;;;5.47;4.50;;;;;;;18.70;90.81;93804.19;5113513;28;20220;-78
2021/09/10 07:07:17;;;;;;;8.45;5.25;;;;;;;18.71;91.28;93801.31;5114343;28;20755;-78
2021/09/10 07:09:44;;;;;;;8.20;5.30;;;;;;;18.61;90.60;93807.28;5114020;28;20793;-79
2021/09/10 07:12:11;;;;;;;8.45;4.85;;;;;;;18.75;91.47;93807.72;5114212;28;20283;-78
2021/09/10 07:14:37;;;;;;;7.57;4.60;;;;;;;18.67;91.53;93806.31;5113873;28;20206;-78
2021/09/10 07:17:04;;;;;;;9.13;4.93;;;;;;;18.79;93.27;93808.78;5114210;28;20660;-79
2021/09/10 07:19:31;;;;;;;7.45;4.85;;;;;;;19.03;92.19;93808.50;5114299;28;20229;-78
2021/09/10 07:21:57;;;;;;;11.68;4.93;;;;;;;18.94;89.34;93810.03;5113930;28;20201;-79
2021/09/10 07:24:24;;;;;;;9.25;5.30;;;;;;;19.07;90.90;93811.44;5114625;28;20205;-78
2021/09/10 07:26:52;;;;;;;8.15;4.90;;;;;;;18.99;88.75;93815.34;5113917;28;20225;-78
2021/09/10 07:29:22;;;;;;;6.35;4.90;;;;;;;19.03;87.61;93816.44;5113773;28;20197;-79
2021/09/10 07:31:49;;;;;;;8.35;5.32;;;;;;;18.99;93.43;93820.66;5113352;28;20203;-79
2021/09/10 07:34:15;;;;;;;6.70;4.80;;;;;;;19.00;91.95;93827.53;5113359;28;20207;-79
2021/09/10 07:36:42;;;;;;;9.30;5.65;;;;;;;18.91;89.54;93821.88;5113482;28;20205;-79
2021/09/10 07:39:08;;;;;;;9.38;5.40;;;;;;;18.88;91.17;93829.53;5113558;28;20235;-79
2021/09/10 07:41:35;;;;;;;7.30;5.28;;;;;;;18.80;91.30;93820.97;5114165;28;20196;-79
2021/09/10 07:44:03;;;;;;;7.47;4.97;;;;;;;18.79;91.50;93834.47;5114282;27;20221;-79
2021/09/10 07:46:33;;;;;;;8.10;4.80;;;;;;;18.77;93.11;93834.72;5114063;28;20209;-79
2021/09/10 07:48:59;;;;;;;7.60;5.07;;;;;;;18.77;94.95;93832.06;5112705;28;20209;-79
2021/09/10 07:51:26;;;;;;;7.03;4.57;;;;;;;18.78;92.78;93833.63;5112774;28;20197;-79
2021/09/10 07:53:52;;;;;;;8.50;5.20;;;;;;;18.82;93.53;93829.47;5113696;28;20651;-79
2021/09/10 07:56:19;;;;;;;8.63;5.13;;;;;;;18.82;96.09;93828.66;5112279;28;20202;-79
2021/09/10 07:58:48;;;;;;;9.85;4.97;;;;;;;18.94;94.32;93831.19;5111016;28;20240;-78
2021/09/10 08:01:16;;;;;;;7.30;4.43;;;;;;;19.07;91.97;93833.41;5093338;28;20632;-79
2021/09/10 08:03:43;;;;;;;10.02;5.15;;;;;;;19.21;93.18;93842.53;5092527;28;20296;-79
2021/09/10 08:06:10;;;;;;;11.43;5.18;;;;;;;19.23;93.36;93843.09;5092068;28;20198;-79
2021/09/10 08:08:40;;;;;;;873.47;102.65;;;;;;;19.48;91.04;93844.31;5092957;28;20560;-78
2021/09/10 08:11:07;;;;;;;6.80;4.60;;;;;;;19.50;92.01;93842.22;5092536;28;20482;-77
2021/09/10 08:13:35;;;;;;;13.38;5.07;;;;;;;19.90;89.73;93838.28;5092904;28;20209;-78
2021/09/10 08:16:06;;;;;;;8.93;4.93;;;;;;;19.95;86.86;93835.66;5092603;28;20289;-77
2021/09/10 08:18:34;;;;;;;10.20;4.97;;;;;;;20.16;83.92;93846.34;5107287;28;20219;-77
2021/09/10 08:21:03;;;;;;;7.95;4.43;;;;;;;20.07;83.10;93847.91;5113431;28;20201;-77
2021/09/10 08:23:29;;;;;;;8.35;5.00;;;;;;;20.23;81.87;93846.09;5112821;28;20292;-77
2021/09/10 08:25:56;;;;;;;9.70;5.00;;;;;;;20.15;82.31;93855.34;5113012;28;20575;-78
2021/09/10 08:28:28;;;;;;;7.85;4.55;;;;;;;20.22;84.76;93847.97;5112214;28;20438;-78
2021/09/10 08:30:57;;;;;;;9.32;4.75;;;;;;;20.12;87.03;93856.66;5112468;28;20213;-78
2021/09/10 08:33:24;;;;;;;7.82;4.63;;;;;;;20.08;85.67;93865.38;5112912;28;20204;-78
2021/09/10 08:35:52;;;;;;;6.60;4.60;;;;;;;20.02;86.22;93866.41;5112836;28;20197;-78
2021/09/10 08:38:19;;;;;;;8.88;4.55;;;;;;;19.87;88.69;93862.63;5112550;28;20651;-78
2021/09/10 08:40:47;;;;;;;8.85;4.95;;;;;;;19.64;91.16;93865.63;5113129;28;20540;-78
2021/09/10 08:43:14;;;;;;;8.02;5.05;;;;;;;19.96;91.67;93865.59;5111772;28;20199;-78
2021/09/10 08:45:42;;;;;;;7.15;4.80;;;;;;;20.19;91.13;93864.38;5111324;28;20209;-78
2021/09/10 08:48:11;;;;;;;7.72;4.68;;;;;;;20.42;87.86;93859.72;5112254;28;20202;-79
2021/09/10 08:50:38;;;;;;;6.85;4.50;;;;;;;20.58;82.82;93869.31;5112866;28;20262;-79
2021/09/10 08:53:06;;;;;;;6.68;4.38;;;;;;;21.06;82.95;93859.38;5112863;28;20254;-78
2021/09/10 08:55:34;;;;;;;8.10;4.75;;;;;;;21.30;81.36;93864.19;5112683;28;20209;-78
2021/09/10 08:58:00;;;;;;;8.23;4.75;;;;;;;21.20;82.26;93875.59;5112180;28;20202;-78
2021/09/10 09:00:30;;;;;;;10.40;4.43;;;;;;;20.86;81.74;93877.91;5112082;28;20240;-78
2021/09/10 09:03:00;;;;;;;7.15;4.65;;;;;;;20.38;87.43;93877.19;5111882;28;20200;-78
2021/09/10 09:05:28;;;;;;;7.13;4.72;;;;;;;20.56;84.56;93881.25;5111865;28;20208;-78
2021/09/10 09:08:10;;;;;;;9.50;5.45;;;;;;;20.54;87.44;93884.16;5111788;28;20201;-78
2021/09/10 09:10:58;;;;;;;8.65;4.80;;;;;;;20.81;82.92;93883.22;5112178;28;20206;-78
2021/09/10 09:13:27;;;;;;;6.43;4.20;;;;;;;21.50;82.69;93873.22;5112621;28;20215;-78
2021/09/10 09:16:17;;;;;;;7.13;4.07;;;;;;;21.41;77.57;93878.25;5112618;28;20205;-79
2021/09/10 09:18:49;;;;;;;7.57;4.38;;;;;;;21.64;77.64;93874.31;5111390;28;20200;-78
2021/09/10 09:21:21;;;;;;;6.93;4.45;;;;;;;22.12;80.41;93876.63;5111597;28;20512;-78
2021/09/10 09:23:51;;;;;;;6.32;4.70;;;;;;;21.96;76.27;93875.84;5112900;28;20564;-78
2021/09/10 09:26:19;;;;;;;8.10;4.50;;;;;;;21.54;82.84;93874.31;5112359;28;20222;-78
2021/09/10 09:28:47;;;;;;;6.03;4.22;;;;;;;21.89;80.48;93878.00;5111887;28;20213;-78
2021/09/10 09:31:23;;;;;;;8.77;4.45;;;;;;;21.56;80.31;93872.97;5113071;28;20236;-77
2021/09/10 09:33:49;;;;;;;8.38;4.47;;;;;;;21.89;79.34;93875.34;5112319;28;20284;-77
2021/09/10 09:36:17;;;;;;;6.53;4.45;;;;;;;21.84;80.74;93864.72;5112348;28;20643;-78
2021/09/10 09:38:45;;;;;;;7.20;5.03;;;;;;;22.01;76.44;93878.50;5111909;28;20670;-78
2021/09/10 09:41:15;;;;;;;9.07;5.18;;;;;;;22.02;79.98;93871.34;5112344;28;20225;-78
2021/09/10 09:43:43;;;;;;;6.72;4.38;;;;;;;22.29;76.82;93871.81;5111844;28;20204;-79
2021/09/10 09:46:12;;;;;;;7.63;4.50;;;;;;;22.01;78.59;93873.19;5101465;28;20201;-78
2021/09/10 09:48:39;;;;;;;8.85;4.80;;;;;;;22.67;79.76;93874.84;5115886;28;20204;-78
2021/09/10 09:51:07;;;;;;;8.35;4.20;;;;;;;23.44;73.87;93873.63;5116230;28;20560;-79
2021/09/10 09:53:35;;;;;;;8.35;4.47;;;;;;;23.92;69.52;93880.97;5111754;28;20200;-77
2021/09/10 09:56:02;;;;;;;7.65;4.53;;;;;;;23.83;68.27;93880.78;5115348;28;20197;-79
2021/09/10 09:58:31;;;;;;;7.75;4.05;;;;;;;23.38;69.90;93882.72;5115188;28;20209;-78
2021/09/10 10:00:58;;;;;;;8.02;4.43;;;;;;;23.09;73.63;93876.25;5115592;28;20282;-78
2021/09/10 10:03:25;;;;;;;6.97;4.38;;;;;;;23.26;72.97;93875.88;5115316;28;20296;-78
2021/09/10 10:06:02;;;;;;;12.13;4.70;;;;;;;23.40;70.23;93880.59;5114529;28;20189;-79
2021/09/10 10:08:34;;;;;;;6.80;4.45;;;;;;;23.33;70.72;93869.44;5115228;28;20193;-78
2021/09/10 10:11:11;;;;;;;5.50;4.13;;;;;;;23.40;70.84;93880.59;5115148;28;20598;-78
2021/09/10 10:13:40;;;;;;;5.70;4.28;;;;;;;22.95;75.91;93877.91;5115069;28;20201;-78
2021/09/10 10:16:06;;;;;;;5.90;4.30;;;;;;;23.27;74.54;93872.13;5115810;28;20578;-78
2021/09/10 10:18:40;;;;;;;6.15;4.10;;;;;;;23.00;73.11;93877.06;5115223;28;20201;-79
2021/09/10 10:21:07;;;;;;;6.05;4.20;;;;;;;23.57;67.16;93875.66;5115827;28;20277;-78
2021/09/10 10:23:55;;;;;;;8.07;3.80;;;;;;;22.83;73.93;93872.09;5115667;28;20655;-78
2021/09/10 10:26:33;;;;;;;9.05;4.35;;;;;;;23.17;73.01;93869.53;5115110;28;20334;-78
2021/09/10 10:29:09;;;;;;;4.97;3.75;;;;;;;23.43;70.83;93874.69;5115411;28;20629;-78
2021/09/10 10:32:12;;;;;;;5.85;4.05;;;;;;;22.74;70.17;93869.22;5114955;28;20197;-78
2021/09/10 10:35:19;;;;;;;7.30;4.07;;;;;;;22.01;76.48;93870.53;5115606;28;20200;-79
2021/09/10 10:37:46;;;;;;;6.60;4.00;;;;;;;21.97;74.76;93861.50;5115294;28;20201;-78
2021/09/10 10:40:33;;;;;;;7.25;3.88;;;;;;;22.61;72.51;93869.81;5114566;28;20591;-79
2021/09/10 10:43:03;;;;;;;7.53;4.25;;;;;;;22.08;74.83;93865.75;5114359;28;20197;-79
2021/09/10 10:46:03;;;;;;;8.55;3.75;;;;;;;22.09;78.33;93867.31;5114823;28;20216;-79
2021/09/10 10:48:49;;;;;;;5.90;4.28;;;;;;;21.80;74.40;93875.09;5114809;28;20193;-78
2021/09/10 10:51:44;;;;;;;5.85;4.47;;;;;;;21.57;75.71;93865.81;5114961;28;20258;-78
2021/09/10 10:54:17;;;;;;;8.23;4.20;;;;;;;22.03;79.81;93855.09;5114626;28;20201;-79
2021/09/10 10:56:48;;;;;;;13.40;4.82;;;;;;;22.30;76.50;93865.44;5114604;28;20204;-78
2021/09/10 10:59:40;;;;;;;9.25;4.10;;;;;;;22.40;75.10;93869.09;5114571;28;20397;-78
2021/09/10 11:02:38;;;;;;;5.68;4.10;;;;;;;22.20;74.26;93864.63;5114360;28;20197;-78
2021/09/10 11:05:12;;;;;;;9.60;4.55;;;;;;;22.65;74.76;93860.22;5114402;28;20236;-79
2021/09/10 11:07:39;;;;;;;6.82;4.30;;;;;;;22.60;72.71;93865.56;5113982;28;20201;-78
2021/09/10 11:10:07;;;;;;;6.03;4.25;;;;;;;23.43;72.04;93854.19;5114299;28;20610;-78
2021/09/10 11:12:34;;;;;;;14.82;4.30;;;;;;;23.83;69.38;93859.44;5114221;28;20198;-78
2021/09/10 11:15:01;;;;;;;7.38;4.63;;;;;;;23.01;72.92;93860.03;5114082;28;20197;-79
2021/09/10 11:17:28;;;;;;;7.53;4.13;;;;;;;23.64;72.28;93860.13;5113860;28;20559;-78
2021/09/10 11:19:57;;;;;;;5.70;4.15;;;;;;;23.89;70.89;93861.00;5114550;28;20271;-78
2021/09/10 11:22:26;;;;;;;6.55;4.45;;;;;;;23.36;71.76;93863.56;5114117;28;20204;-78
2021/09/10 11:25:05;;;;;;;7.13;4.38;;;;;;;22.95;71.36;93856.63;5114151;28;20555;-79
2021/09/10 11:27:32;;;;;;;6.95;4.38;;;;;;;23.31;71.86;93856.38;5114516;28;20193;-79
2021/09/10 11:30:05;;;;;;;6.25;4.30;;;;;;;22.72;73.89;93855.41;5113453;28;20204;-79